Terminal Aerodrome Forecast
Issued by NWS

Home | Current Version | Previous Version | Text Only | Print | Product List | Glossary On
Versions: 1 2 3 4 5 6 7 8 9 10 11 12
000
FTUS42 TJSJ 160500
TAFISX
TAF
TISX 160521Z 1606/1706 03003KT P6SM FEW025
     FM161430 11010KT P6SM FEW025
     FM162300 04004KT P6SM FEW025=

USA.gov is the U.S. government's official web portal to all federal, state and local government web resources and services.